createdAt,value
2018-12-08T00:02:16.794Z,94895.80
2018-12-08T00:04:45.029Z,94906.46
2018-12-08T00:07:13.520Z,94904.03
2018-12-08T00:09:41.785Z,94885.28
2018-12-08T00:12:10.021Z,94913.55
2018-12-08T00:14:38.336Z,94925.78
2018-12-08T00:17:06.641Z,94938.53
2018-12-08T00:19:34.986Z,94939.55
2018-12-08T00:22:03.204Z,94937.47
2018-12-08T00:24:31.642Z,94953.90
2018-12-08T00:26:59.923Z,94954.96
2018-12-08T00:29:28.237Z,94935.45
2018-12-08T00:31:56.601Z,94954.64
2018-12-08T00:34:24.857Z,94965.48
2018-12-08T00:36:53.152Z,94966.02
2018-12-08T00:39:21.437Z,94977.97
2018-12-08T00:41:49.661Z,94993.31
2018-12-08T00:44:18.042Z,95009.50
2018-12-08T00:46:46.254Z,95009.81
2018-12-08T00:49:14.481Z,95034.05
2018-12-08T00:51:42.817Z,95027.88
2018-12-08T00:54:11.043Z,95030.66
2018-12-08T00:56:39.320Z,95039.53
2018-12-08T00:59:07.719Z,95035.91
2018-12-08T01:01:36.029Z,95047.98
2018-12-08T01:04:04.465Z,95051.97
2018-12-08T01:06:32.684Z,95053.26
2018-12-08T01:09:01.051Z,95068.41
2018-12-08T01:11:29.279Z,95075.23
2018-12-08T01:13:57.556Z,95081.41
2018-12-08T01:16:25.800Z,95096.29
2018-12-08T01:18:54.242Z,95110.29
2018-12-08T01:21:22.583Z,95120.38
2018-12-08T01:23:50.863Z,95122.73
2018-12-08T01:26:19.140Z,95125.57
2018-12-08T01:28:47.439Z,95138.69
2018-12-08T01:31:15.667Z,95114.95
2018-12-08T01:33:43.878Z,95122.41
2018-12-08T01:36:12.164Z,95128.59
2018-12-08T01:38:40.453Z,95148.19
2018-12-08T01:41:08.707Z,95145.48
2018-12-08T01:43:36.983Z,95163.19
2018-12-08T01:46:05.239Z,95158.72
2018-12-08T01:48:33.446Z,95156.16
2018-12-08T01:51:01.730Z,95166.75
2018-12-08T01:53:29.975Z,95169.21
2018-12-08T01:55:58.268Z,95169.55
2018-12-08T01:58:26.531Z,95176.84
2018-12-08T02:00:54.738Z,95160.08
2018-12-08T02:03:23.082Z,95165.11
2018-12-08T02:05:51.494Z,95169.27
2018-12-08T02:08:19.844Z,95190.42
2018-12-08T02:10:48.117Z,95169.89
2018-12-08T02:13:16.597Z,95192.59
2018-12-08T02:15:44.814Z,95185.48
2018-12-08T02:18:13.046Z,95202.91
2018-12-08T02:20:41.318Z,95209.09
2018-12-08T02:23:09.595Z,95207.34
2018-12-08T02:25:37.872Z,95220.52
2018-12-08T02:28:06.178Z,95212.41
2018-12-08T02:30:34.436Z,95204.48
2018-12-08T02:33:02.735Z,95214.18
2018-12-08T02:35:31.035Z,95216.67
2018-12-08T02:37:59.228Z,95219.61
2018-12-08T02:40:27.634Z,95251.59
2018-12-08T02:42:56.010Z,95251.19
2018-12-08T02:45:24.297Z,95260.45
2018-12-08T02:47:52.673Z,95240.61
2018-12-08T02:50:20.975Z,95253.82
2018-12-08T02:52:49.237Z,95261.89
2018-12-08T02:55:17.501Z,95253.73
2018-12-08T02:57:45.874Z,95254.60
2018-12-08T03:00:14.218Z,95260.14
2018-12-08T03:02:42.524Z,95268.28
2018-12-08T03:05:10.819Z,95272.41
2018-12-08T03:07:39.085Z,95290.80
2018-12-08T03:10:07.567Z,95271.62
2018-12-08T03:12:35.838Z,95292.50
2018-12-08T03:15:04.636Z,95270.64
2018-12-08T03:17:32.963Z,95298.36
2018-12-08T03:20:01.167Z,95285.81
2018-12-08T03:22:29.456Z,95287.20
2018-12-08T03:24:57.671Z,95287.81
2018-12-08T03:27:25.870Z,95287.57
2018-12-08T03:29:54.094Z,95270.77
2018-12-08T03:32:22.353Z,95294.97
2018-12-08T03:34:50.647Z,95302.12
2018-12-08T03:37:18.924Z,95300.16
2018-12-08T03:39:47.136Z,95300.45
2018-12-08T03:42:15.471Z,95330.80
2018-12-08T03:44:43.687Z,95300.73
2018-12-08T03:47:11.946Z,95309.95
2018-12-08T03:49:40.322Z,95311.66
2018-12-08T03:52:08.604Z,95320.94
2018-12-08T03:54:36.827Z,95321.36
2018-12-08T03:57:05.083Z,95308.61
2018-12-08T03:59:33.305Z,95318.20
2018-12-08T04:02:01.619Z,95328.12
2018-12-08T04:04:29.980Z,95325.73
2018-12-08T04:06:59.098Z,95321.81
2018-12-08T04:09:28.349Z,95325.86
2018-12-08T04:11:56.653Z,95335.66
2018-12-08T04:14:24.997Z,95357.64
2018-12-08T04:16:53.331Z,95352.81
2018-12-08T04:19:22.470Z,95365.08
2018-12-08T04:21:50.802Z,95350.39
2018-12-08T04:24:19.039Z,95353.25
2018-12-08T04:26:47.294Z,95365.38
2018-12-08T04:29:15.600Z,95367.79
2018-12-08T04:31:43.906Z,95360.75
2018-12-08T04:34:12.117Z,95364.69
2018-12-08T04:36:40.408Z,95386.62
2018-12-08T04:39:08.798Z,95358.38
2018-12-08T04:41:37.056Z,95362.49
2018-12-08T04:44:05.287Z,95361.05
2018-12-08T04:46:33.534Z,95364.21
2018-12-08T04:49:01.785Z,95368.25
2018-12-08T04:51:30.002Z,95364.91
2018-12-08T04:53:58.236Z,95370.31
2018-12-08T04:56:26.455Z,95370.27
2018-12-08T04:58:54.686Z,95373.78
2018-12-08T05:01:23.155Z,95364.97
2018-12-08T05:03:51.611Z,95376.02
2018-12-08T05:06:19.923Z,95359.84
2018-12-08T05:08:48.171Z,95361.74
2018-12-08T05:11:16.407Z,95363.45
2018-12-08T05:13:44.639Z,95367.02
2018-12-08T05:16:13.027Z,95371.41
2018-12-08T05:18:41.236Z,95365.05
2018-12-08T05:21:09.532Z,95385.61
2018-12-08T05:23:37.862Z,95374.94
2018-12-08T05:26:06.156Z,95381.80
2018-12-08T05:28:34.365Z,95380.70
2018-12-08T05:31:02.612Z,95381.45
2018-12-08T05:33:30.811Z,95374.09
2018-12-08T05:35:59.061Z,95385.44
2018-12-08T05:38:27.522Z,95402.05
2018-12-08T05:40:55.782Z,95393.93
2018-12-08T05:43:23.997Z,95421.05
2018-12-08T05:45:52.218Z,95395.30
2018-12-08T05:48:20.459Z,95395.26
2018-12-08T05:50:48.713Z,95390.80
2018-12-08T05:53:16.950Z,95389.41
2018-12-08T05:55:45.156Z,95388.02
2018-12-08T05:58:13.359Z,95388.59
2018-12-08T06:00:41.597Z,95387.48
2018-12-08T06:03:09.875Z,95387.00
2018-12-08T06:05:38.139Z,95400.73
2018-12-08T06:08:06.371Z,95377.22
2018-12-08T06:10:34.713Z,95383.44
2018-12-08T06:13:02.975Z,95376.39
2018-12-08T06:15:31.195Z,95396.84
2018-12-08T06:17:59.445Z,95378.67
2018-12-08T06:20:27.642Z,95387.50
2018-12-08T06:22:55.879Z,95381.15
2018-12-08T06:25:27.291Z,95384.78
2018-12-08T06:28:01.944Z,95369.55
2018-12-08T06:30:30.220Z,95383.29
2018-12-08T06:32:58.492Z,95378.22
2018-12-08T06:35:26.718Z,95380.46
2018-12-08T06:37:54.971Z,95374.45
2018-12-08T06:40:29.189Z,95379.98
2018-12-08T06:42:53.501Z,95365.52
2018-12-08T06:45:21.741Z,95373.53
2018-12-08T06:47:50.043Z,95374.32
2018-12-08T06:50:18.274Z,95367.69
2018-12-08T06:52:46.493Z,95393.24
2018-12-08T06:55:14.831Z,95364.84
2018-12-08T06:57:43.111Z,95373.61
2018-12-08T07:00:12.346Z,95363.45
2018-12-08T07:02:40.676Z,95357.02
2018-12-08T07:05:08.984Z,95359.09
2018-12-08T07:07:37.227Z,95357.77
2018-12-08T07:10:05.736Z,95363.65
2018-12-08T07:12:33.987Z,95362.59
2018-12-08T07:15:02.247Z,95403.59
2018-12-08T07:17:30.595Z,95366.78
2018-12-08T07:19:58.824Z,95406.85
2018-12-08T07:22:27.071Z,95387.38
2018-12-08T07:24:55.297Z,95385.13
2018-12-08T07:27:23.511Z,95392.95
2018-12-08T07:29:51.788Z,95397.16
2018-12-08T07:32:20.040Z,95394.00
2018-12-08T07:34:48.246Z,95390.61
2018-12-08T07:37:16.496Z,95403.93
2018-12-08T07:39:44.723Z,95378.84
2018-12-08T07:42:12.987Z,95386.77
2018-12-08T07:44:41.211Z,95399.89
2018-12-08T07:47:09.490Z,95392.41
2018-12-08T07:49:37.817Z,95389.92
2018-12-08T07:52:06.095Z,95385.80
2018-12-08T07:54:34.298Z,95373.43
2018-12-08T07:57:02.549Z,95387.80
2018-12-08T07:59:30.764Z,95381.24
2018-12-08T08:01:59.047Z,95387.97
2018-12-08T08:04:27.388Z,95408.97
2018-12-08T08:06:55.585Z,95374.59
2018-12-08T08:09:23.984Z,95387.67
2018-12-08T08:11:52.278Z,95392.41
2018-12-08T08:14:20.572Z,95377.72
2018-12-08T08:16:48.902Z,95378.11
2018-12-08T08:19:17.145Z,95393.28
2018-12-08T08:21:45.386Z,95383.99
2018-12-08T08:24:13.614Z,95395.24
2018-12-08T08:26:41.908Z,95388.16
2018-12-08T08:29:10.233Z,95376.88
2018-12-08T08:31:38.446Z,95390.78
2018-12-08T08:34:06.684Z,95376.48
2018-12-08T08:36:34.900Z,95376.63
2018-12-08T08:39:03.816Z,95390.52
2018-12-08T08:41:32.131Z,95376.25
2018-12-08T08:44:00.395Z,95372.90
2018-12-08T08:46:28.611Z,95377.45
2018-12-08T08:48:56.836Z,95372.47
2018-12-08T08:51:25.057Z,95384.54
2018-12-08T08:53:53.293Z,95363.36
2018-12-08T08:56:21.584Z,95377.63
2018-12-08T08:58:49.927Z,95367.41
2018-12-08T09:01:18.342Z,95372.44
2018-12-08T09:03:46.718Z,95367.46
2018-12-08T09:06:16.045Z,95366.82
2018-12-08T09:08:44.276Z,95355.58
2018-12-08T09:11:12.508Z,95387.44
2018-12-08T09:13:40.742Z,95363.66
2018-12-08T09:16:08.983Z,95367.41
2018-12-08T09:18:37.215Z,95372.46
2018-12-08T09:21:05.931Z,95358.05
2018-12-08T09:23:34.161Z,95363.05
2018-12-08T09:26:02.388Z,95342.57
2018-12-08T09:28:30.754Z,95344.77
2018-12-08T09:30:59.188Z,95347.05
2018-12-08T09:33:27.401Z,95362.34
2018-12-08T09:35:55.773Z,95345.53
2018-12-08T09:38:24.117Z,95342.06
2018-12-08T09:40:52.335Z,95334.13
2018-12-08T09:43:20.676Z,95357.33
2018-12-08T09:45:49.013Z,95363.27
2018-12-08T09:48:17.336Z,95336.34
2018-12-08T09:50:45.824Z,95341.11
2018-12-08T09:53:16.981Z,95328.86
2018-12-08T09:55:45.242Z,95332.66
2018-12-08T09:58:13.581Z,95329.62
2018-12-08T10:00:41.827Z,95338.53
2018-12-08T10:03:10.095Z,95343.60
2018-12-08T10:05:38.348Z,95340.20
2018-12-08T10:08:06.691Z,95334.15
2018-12-08T10:10:34.914Z,95323.47
2018-12-08T10:13:03.468Z,95331.69
2018-12-08T10:15:31.806Z,95341.88
2018-12-08T10:18:00.063Z,95320.36
2018-12-08T10:20:28.293Z,95332.38
2018-12-08T10:22:56.569Z,95333.09
2018-12-08T10:25:24.851Z,95311.98
2018-12-08T10:27:53.228Z,95319.07
2018-12-08T10:30:21.585Z,95305.63
2018-12-08T10:32:50.103Z,95300.92
2018-12-08T10:35:18.339Z,95306.05
2018-12-08T10:37:46.703Z,95295.30
2018-12-08T10:40:15.023Z,95298.50
2018-12-08T10:42:43.287Z,95292.39
2018-12-08T10:45:11.547Z,95290.32
2018-12-08T10:47:39.812Z,95285.23
2018-12-08T10:50:08.253Z,95287.38
2018-12-08T10:52:36.513Z,95272.50
2018-12-08T10:55:05.471Z,95284.41
2018-12-08T10:57:33.762Z,95278.28
2018-12-08T11:00:02.049Z,95314.44
2018-12-08T11:05:21.076Z,95275.84
2018-12-08T11:07:49.396Z,95285.94
2018-12-08T11:10:17.774Z,95267.77
2018-12-08T11:12:46.001Z,95273.56
2018-12-08T11:15:14.374Z,95264.03
2018-12-08T11:17:42.607Z,95256.02
2018-12-08T11:20:10.907Z,95273.79
2018-12-08T11:22:39.130Z,95270.86
2018-12-08T11:25:07.361Z,95244.67
2018-12-08T11:27:35.604Z,95237.22
2018-12-08T11:30:14.718Z,95235.75
2018-12-08T11:32:43.032Z,95248.27
2018-12-08T11:35:11.300Z,95257.58
2018-12-08T11:37:39.529Z,95240.73
2018-12-08T11:40:08.877Z,95245.82
2018-12-08T11:42:37.156Z,95238.75
2018-12-08T11:45:05.867Z,95238.81
2018-12-08T11:47:34.184Z,95214.39
2018-12-08T11:50:02.405Z,95213.62
2018-12-08T11:52:30.655Z,95217.05
2018-12-08T11:54:58.950Z,95200.17
2018-12-08T11:57:27.193Z,95203.64
2018-12-08T11:59:56.204Z,95231.95
2018-12-08T12:02:24.608Z,95196.75
2018-12-08T12:04:56.068Z,95215.68
2018-12-08T12:07:24.472Z,95215.72
2018-12-08T12:09:53.689Z,95215.89
2018-12-08T12:12:22.102Z,95218.45
2018-12-08T12:14:50.734Z,95246.02
2018-12-08T12:17:19.040Z,95235.42
2018-12-08T12:19:50.775Z,95212.38
2018-12-08T12:22:19.116Z,95219.38
2018-12-08T12:24:47.363Z,95209.46
2018-12-08T12:27:15.735Z,95209.55
2018-12-08T12:29:44.055Z,95208.47
2018-12-08T12:32:12.282Z,95225.03
2018-12-08T12:34:40.520Z,95204.30
2018-12-08T12:37:08.737Z,95207.39
2018-12-08T12:39:37.018Z,95227.79
2018-12-08T12:42:05.247Z,95207.19
2018-12-08T12:44:33.563Z,95208.69
2018-12-08T12:47:01.823Z,95201.79
2018-12-08T12:49:30.051Z,95206.28
2018-12-08T12:51:58.396Z,95207.05
2018-12-08T12:54:26.672Z,95197.28
2018-12-08T12:56:54.946Z,95218.30
2018-12-08T12:59:23.220Z,95214.65
2018-12-08T13:01:51.479Z,95195.95
2018-12-08T13:04:19.903Z,95191.87
2018-12-08T13:06:48.259Z,95223.49
2018-12-08T13:09:29.193Z,95192.82
2018-12-08T13:12:06.465Z,95208.05
2018-12-08T13:14:38.881Z,95184.07
2018-12-08T13:17:07.183Z,95168.19
2018-12-08T13:19:35.416Z,95159.69
2018-12-08T13:22:03.655Z,95157.66
2018-12-08T13:24:32.002Z,95164.09
2018-12-08T13:27:00.330Z,95170.20
2018-12-08T13:29:30.478Z,95177.14
2018-12-08T13:31:58.780Z,95166.98
2018-12-08T13:34:29.092Z,95173.22
2018-12-08T13:36:58.503Z,95170.75
2018-12-08T13:39:26.842Z,95171.90
2018-12-08T13:41:55.256Z,95197.44
2018-12-08T13:44:35.823Z,95185.47
2018-12-08T13:47:04.154Z,95161.75
2018-12-08T13:49:32.484Z,95179.34
2018-12-08T13:52:00.719Z,95165.90
2018-12-08T13:54:46.138Z,95158.81
2018-12-08T13:57:14.486Z,95173.82
2018-12-08T13:59:51.025Z,95149.94
2018-12-08T14:02:26.824Z,95191.99
2018-12-08T14:04:55.079Z,95149.23
2018-12-08T14:07:24.335Z,95165.87
2018-12-08T14:09:52.589Z,95176.51
2018-12-08T14:12:20.869Z,95170.72
2018-12-08T14:14:50.028Z,95164.34
2018-12-08T14:17:18.284Z,95156.99
2018-12-08T14:19:50.783Z,95176.81
2018-12-08T14:22:20.103Z,95177.59
2018-12-08T14:24:52.083Z,95169.66
2018-12-08T14:27:21.383Z,95172.44
2018-12-08T14:29:49.731Z,95168.28
2018-12-08T14:32:17.967Z,95181.41
2018-12-08T14:34:46.222Z,95156.27
2018-12-08T14:37:21.029Z,95167.53
2018-12-08T14:39:50.344Z,95172.19
2018-12-08T14:42:19.661Z,95176.78
2018-12-08T14:44:53.248Z,95180.98
2018-12-08T14:47:21.547Z,95188.36
2018-12-08T14:49:55.523Z,95214.48
2018-12-08T14:52:30.851Z,95188.83
2018-12-08T14:55:05.371Z,95192.00
2018-12-08T14:57:33.641Z,95169.23
2018-12-08T15:00:01.945Z,95198.59
2018-12-08T15:02:30.205Z,95196.86
2018-12-08T15:04:58.459Z,95236.27
2018-12-08T15:07:27.719Z,95202.08
2018-12-08T15:10:02.182Z,95211.23
2018-12-08T15:12:38.883Z,95199.79
2018-12-08T15:15:07.405Z,95215.72
2018-12-08T15:17:35.840Z,95214.30
2018-12-08T15:20:05.450Z,95196.51
2018-12-08T15:22:39.793Z,95207.00
2018-12-08T15:25:27.188Z,95232.44
2018-12-08T15:27:55.451Z,95195.34
2018-12-08T15:30:23.970Z,95211.89
2018-12-08T15:32:52.347Z,95182.50
2018-12-08T15:35:20.595Z,95197.99
2018-12-08T15:37:48.851Z,95192.99
2018-12-08T15:40:17.155Z,95211.08
2018-12-08T15:42:45.446Z,95179.87
2018-12-08T15:45:13.744Z,95214.14
2018-12-08T15:47:42.438Z,95186.46
2018-12-08T15:50:10.797Z,95164.22
2018-12-08T15:52:39.165Z,95212.20
2018-12-08T15:55:07.555Z,95171.08
2018-12-08T15:57:35.878Z,95161.27
2018-12-08T16:00:08.406Z,95170.09
2018-12-08T16:02:36.784Z,95162.33
2018-12-08T16:05:09.556Z,95174.71
2018-12-08T16:07:38.127Z,95193.56
2018-12-08T16:10:08.935Z,95170.41
2018-12-08T16:12:37.222Z,95169.55
2018-12-08T16:15:07.008Z,95156.83
2018-12-08T16:17:35.323Z,95171.18
2018-12-08T16:20:05.251Z,95161.38
2018-12-08T16:22:33.528Z,95149.41
2018-12-08T16:25:01.734Z,95155.24
2018-12-08T16:27:29.977Z,95151.31
2018-12-08T16:29:58.199Z,95168.02
2018-12-08T16:32:26.487Z,95165.36
2018-12-08T16:34:54.708Z,95168.42
2018-12-08T16:37:22.928Z,95173.16
2018-12-08T16:39:51.358Z,95174.95
2018-12-08T16:42:19.592Z,95170.36
2018-12-08T16:44:47.803Z,95184.16
2018-12-08T16:47:16.275Z,95157.02
2018-12-08T16:49:44.675Z,95178.17
2018-12-08T16:52:13.008Z,95181.44
2018-12-08T16:54:41.227Z,95164.62
2018-12-08T16:57:09.483Z,95169.95
2018-12-08T16:59:37.712Z,95174.59
2018-12-08T17:02:05.976Z,95159.52
2018-12-08T17:04:34.300Z,95161.27
2018-12-08T17:09:37.049Z,95161.66
2018-12-08T17:12:05.361Z,95165.34
2018-12-08T17:14:33.782Z,95160.84
2018-12-08T17:17:02.028Z,95148.38
2018-12-08T17:19:30.263Z,95154.16
2018-12-08T17:21:58.482Z,95163.66
2018-12-08T17:24:26.716Z,95146.14
2018-12-08T17:26:54.947Z,95144.56
2018-12-08T17:29:23.212Z,95135.05
2018-12-08T17:31:51.466Z,95134.59
2018-12-08T17:34:19.715Z,95142.98
2018-12-08T17:36:48.047Z,95120.25
2018-12-08T17:39:16.339Z,95136.70
2018-12-08T17:41:44.631Z,95125.56
2018-12-08T17:44:12.980Z,95134.53
2018-12-08T17:46:41.188Z,95120.03
2018-12-08T17:49:09.523Z,95116.41
2018-12-08T17:51:37.785Z,95125.20
2018-12-08T17:54:05.990Z,95140.63
2018-12-08T17:56:34.272Z,95109.12
2018-12-08T17:59:02.556Z,95110.37
2018-12-08T18:01:30.962Z,95119.06
2018-12-08T18:03:59.286Z,95106.76
2018-12-08T18:06:27.531Z,95111.73
2018-12-08T18:08:55.775Z,95140.88
2018-12-08T18:11:24.018Z,95102.00
2018-12-08T18:13:52.235Z,95088.94
2018-12-08T18:16:20.475Z,95106.16
2018-12-08T18:18:48.835Z,95106.42
2018-12-08T18:21:17.207Z,95102.17
2018-12-08T18:23:45.537Z,95109.84
2018-12-08T18:26:13.893Z,95090.04
2018-12-08T18:28:42.149Z,95093.81
2018-12-08T18:31:10.399Z,95097.80
2018-12-08T18:33:38.794Z,95112.17
2018-12-08T18:36:07.435Z,95100.07
2018-12-08T18:38:35.700Z,95102.82
2018-12-08T18:41:03.971Z,95090.34
2018-12-08T18:43:32.183Z,95085.55
2018-12-08T18:46:00.514Z,95096.73
2018-12-08T18:48:28.767Z,95075.59
2018-12-08T18:50:57.038Z,95074.08
2018-12-08T18:53:25.248Z,95068.30
2018-12-08T18:55:53.598Z,95072.75
2018-12-08T18:58:21.948Z,95086.61
2018-12-08T19:00:50.208Z,95066.62
2018-12-08T19:06:14.753Z,95075.98
2018-12-08T19:08:42.968Z,95069.55
2018-12-08T19:11:11.407Z,95074.57
2018-12-08T19:13:39.734Z,95074.02
2018-12-08T19:16:08.157Z,95060.79
2018-12-08T19:18:36.372Z,95059.13
2018-12-08T19:21:04.721Z,95062.94
2018-12-08T19:23:33.960Z,95047.27
2018-12-08T19:26:02.395Z,95047.31
2018-12-08T19:28:30.771Z,95089.27
2018-12-08T19:31:00.682Z,95053.41
2018-12-08T19:33:28.977Z,95040.41
2018-12-08T19:35:57.252Z,95079.73
2018-12-08T19:38:25.582Z,95028.98
2018-12-08T19:40:53.959Z,95034.38
2018-12-08T19:46:01.905Z,95025.52
2018-12-08T19:48:30.181Z,95016.72
2018-12-08T19:50:58.390Z,95001.84
2018-12-08T19:53:26.667Z,94995.77
2018-12-08T19:55:54.923Z,94994.41
2018-12-08T19:58:23.186Z,94988.38
2018-12-08T20:00:51.394Z,94984.13
2018-12-08T20:03:19.862Z,94992.33
2018-12-08T20:05:48.121Z,94978.77
2018-12-08T20:08:16.446Z,94979.88
2018-12-08T20:10:44.785Z,94968.52
2018-12-08T20:13:13.043Z,94961.25
2018-12-08T20:15:41.335Z,94963.11
2018-12-08T20:18:09.614Z,94969.73
2018-12-08T20:20:37.947Z,94952.44
2018-12-08T20:23:06.176Z,94955.06
2018-12-08T20:25:34.398Z,94969.41
2018-12-08T20:28:02.608Z,94956.45
2018-12-08T20:30:31.001Z,94949.80
2018-12-08T20:32:59.481Z,94930.84
2018-12-08T20:35:27.903Z,94921.06
2018-12-08T20:37:56.448Z,94929.51
2018-12-08T20:40:24.855Z,94918.12
2018-12-08T20:42:53.208Z,94904.80
2018-12-08T20:45:21.419Z,94907.30
2018-12-08T20:47:49.631Z,94922.66
2018-12-08T20:50:17.900Z,94896.41
2018-12-08T20:52:46.187Z,94910.45
2018-12-08T20:55:14.446Z,94892.83
2018-12-08T20:57:42.734Z,94883.80
2018-12-08T21:00:11.213Z,94878.48
2018-12-08T21:02:40.007Z,94895.02
2018-12-08T21:05:08.422Z,94863.95
2018-12-08T21:07:36.771Z,94891.86
2018-12-08T21:10:06.630Z,94888.66
2018-12-08T21:12:34.956Z,94897.73
2018-12-08T21:15:03.430Z,94890.58
2018-12-08T21:17:31.695Z,94877.48
2018-12-08T21:19:59.968Z,94844.00
2018-12-08T21:22:28.233Z,94837.92
2018-12-08T21:24:56.652Z,94843.76
2018-12-08T21:27:25.967Z,94838.98
2018-12-08T21:29:54.615Z,94831.48
2018-12-08T21:32:23.006Z,94836.28
2018-12-08T21:34:51.425Z,94845.11
2018-12-08T21:37:22.052Z,94825.92
2018-12-08T21:39:50.406Z,94802.84
2018-12-08T21:42:18.705Z,94806.31
2018-12-08T21:44:47.128Z,94806.04
2018-12-08T21:47:15.575Z,94796.17
2018-12-08T21:49:45.031Z,94779.69
2018-12-08T21:52:13.354Z,94777.81
2018-12-08T21:54:41.586Z,94782.89
2018-12-08T21:57:09.855Z,94755.49
2018-12-08T21:59:38.087Z,94778.94
2018-12-08T22:02:06.395Z,94765.59
2018-12-08T22:04:34.791Z,94766.20
2018-12-08T22:07:03.015Z,94773.08
2018-12-08T22:09:31.342Z,94765.63
2018-12-08T22:11:59.630Z,94758.77
2018-12-08T22:14:27.907Z,94755.32
2018-12-08T22:16:56.115Z,94746.76
2018-12-08T22:19:24.347Z,94745.45
2018-12-08T22:21:52.619Z,94736.66
2018-12-08T22:24:20.827Z,94752.89
2018-12-08T22:26:49.065Z,94729.71
2018-12-08T22:29:17.299Z,94735.05
2018-12-08T22:31:45.524Z,94725.72
2018-12-08T22:34:13.799Z,94743.08
2018-12-08T22:36:42.012Z,94710.23
2018-12-08T22:39:10.308Z,94699.08
2018-12-08T22:41:38.529Z,94684.17
2018-12-08T22:44:06.795Z,94719.53
2018-12-08T22:46:35.091Z,94684.12
2018-12-08T22:49:04.064Z,94662.33
2018-12-08T22:51:32.442Z,94663.16
2018-12-08T22:54:00.718Z,94655.16
2018-12-08T22:56:28.996Z,94664.73
2018-12-08T22:58:57.271Z,94650.91
2018-12-08T23:01:25.547Z,94642.67
2018-12-08T23:03:54.040Z,94651.21
2018-12-08T23:06:22.290Z,94681.53
2018-12-08T23:08:50.502Z,94642.41
2018-12-08T23:11:18.751Z,94644.81
2018-12-08T23:13:47.026Z,94628.31
2018-12-08T23:16:15.312Z,94615.52
2018-12-08T23:18:43.591Z,94615.00
2018-12-08T23:21:11.865Z,94612.35
2018-12-08T23:23:40.249Z,94607.28
2018-12-08T23:26:08.539Z,94588.94
2018-12-08T23:28:36.906Z,94613.13
2018-12-08T23:31:05.185Z,94595.56
2018-12-08T23:33:33.422Z,94586.53
2018-12-08T23:36:01.721Z,94575.38
2018-12-08T23:38:30.247Z,94584.41
2018-12-08T23:40:58.549Z,94561.02
2018-12-08T23:43:26.799Z,94558.63
2018-12-08T23:45:55.105Z,94550.64
2018-12-08T23:48:23.460Z,94558.91
2018-12-08T23:50:51.767Z,94563.98
2018-12-08T23:53:20.195Z,94558.65
2018-12-08T23:55:48.467Z,94563.64
2018-12-08T23:58:16.701Z,94536.24
